Apostolis T. — SVA2334 — position and weather

sailwx.info

Track history (hours):
 
Tides and Currents Weather Stations Pressure Air Temp Water Temp Dewpoint Dewpoint Depression Visibility Wind Speed Wind Dir Waves Ship Positions

Apostolis T.

Last reported at 2018-Jun-22 18:23 UTC. Time now 2018-Jun-22 18:56 UTC.
Position N 38°11' E 024°07'.

Length 76 m; draft 2.4 m.

Type: Ship. MMSI: 239471800.

Date/timePositionNaut miles runAvg speedWind from/ knotsBaromVisibWave heightAir tempDewpointWater temp
2018-Jun-22 18:23N 38°11' E 024°07'1 1.0
2018-Jun-22 17:04N 38°11' E 024°09'3 5.3
2018-Jun-22 16:34N 38°11' E 024°12'2 9.9
2018-Jun-22 16:20N 38°11' E 024°09'1 1.0
2018-Jun-22 15:00N 38°11' E 024°07'4 5.2
2018-Jun-22 14:17N 38°11' E 024°12'410.1
2018-Jun-22 13:54N 38°11' E 024°08'  
2018-Jun-17 10:33N 38°11' E 024°12'0 0.3
2018-Jun-17 10:28N 38°11' E 024°12'0 0.0
2018-Jun-17 09:43N 38°11' E 024°12'0 0.0
2018-Jun-17 09:30N 38°11' E 024°12'0 0.0
2018-Jun-17 09:00N 38°11' E 024°12'0 0.0
2018-Jun-17 08:21N 38°11' E 024°12'3 6.8
2018-Jun-17 07:59N 38°11' E 024°09'0 0.0
2018-Jun-17 05:43N 38°11' E 024°09'0 0.0
2018-Jun-16 18:13N 38°11' E 024°09'1 1.3
2018-Jun-16 17:16N 38°11' E 024°07'4 9.7
2018-Jun-16 16:52N 38°11' E 024°12'3 5.1
2018-Jun-16 16:21N 38°11' E 024°09'1 1.2
2018-Jun-16 15:11N 38°11' E 024°07'4 9.6
2018-Jun-16 14:46N 38°11' E 024°12'0 0.1
2018-Jun-16 14:30N 38°11' E 024°12'0 0.0
2018-Jun-15 10:16N 38°11' E 024°12'310.1
2018-Jun-15 10:00N 38°11' E 024°09'0 0.0
2018-Jun-15 08:01N 38°11' E 024°09'110.3
2018-Jun-15 07:54N 38°11' E 024°07'1 0.6
2018-Jun-15 05:29N 38°11' E 024°09'0 0.0
2018-Jun-14 17:58N 38°11' E 024°09'2 2.2
2018-Jun-14 17:04N 38°11' E 024°07'2 2.1
2018-Jun-14 16:02N 38°11' E 024°09'210.5
2018-Jun-14 15:52N 38°11' E 024°07'4 3.2
2018-Jun-14 14:35N 38°11' E 024°12'0 0.1
2018-Jun-14 14:18N 38°11' E 024°12'4 9.9
2018-Jun-14 13:52N 38°10' E 024°07'2 1.0
2018-Jun-14 12:08N 38°11' E 024°09'110.2
2018-Jun-14 11:59N 38°11' E 024°07'1 0.6
2018-Jun-14 11:00N 38°11' E 024°07'5 5.2
2018-Jun-14 10:07N 38°11' E 024°12'0 0.0
2018-Jun-13 10:15N 38°11' E 024°12'310.2
2018-Jun-13 10:00N 38°11' E 024°09'0 0.1
2018-Jun-13 08:02N 38°11' E 024°09'110.7
2018-Jun-13 07:56N 38°11' E 024°08'  
Track history (hours):
 
Tides and Currents Weather Stations Pressure Air Temp Water Temp Dewpoint Dewpoint Depression Visibility Wind Speed Wind Dir Waves Ship Positions

Apostolis T.

Last reported at 2018-Jun-22 18:23 UTC. Time now 2018-Jun-22 18:56 UTC.
Position N 38°11' E 024°07'.

Length 76 m; draft 2.4 m.

Type: Ship. MMSI: 239471800.

Date/timePositionNaut miles runAvg speedWind from/ knotsBaromVisibWave heightAir tempDewpointWater temp
2018-Jun-22 18:23N 38°11' E 024°07'1 1.0
2018-Jun-22 17:04N 38°11' E 024°09'3 5.3
2018-Jun-22 16:34N 38°11' E 024°12'2 9.9
2018-Jun-22 16:20N 38°11' E 024°09'1 1.0
2018-Jun-22 15:00N 38°11' E 024°07'4 5.2
2018-Jun-22 14:17N 38°11' E 024°12'410.1
2018-Jun-22 13:54N 38°11' E 024°08'  
2018-Jun-17 10:33N 38°11' E 024°12'0 0.3
2018-Jun-17 10:28N 38°11' E 024°12'0 0.0
2018-Jun-17 09:43N 38°11' E 024°12'0 0.0
2018-Jun-17 09:30N 38°11' E 024°12'0 0.0
2018-Jun-17 09:00N 38°11' E 024°12'0 0.0
2018-Jun-17 08:21N 38°11' E 024°12'3 6.8
2018-Jun-17 07:59N 38°11' E 024°09'0 0.0
2018-Jun-17 05:43N 38°11' E 024°09'0 0.0
2018-Jun-16 18:13N 38°11' E 024°09'1 1.3
2018-Jun-16 17:16N 38°11' E 024°07'4 9.7
2018-Jun-16 16:52N 38°11' E 024°12'3 5.1
2018-Jun-16 16:21N 38°11' E 024°09'1 1.2
2018-Jun-16 15:11N 38°11' E 024°07'4 9.6
2018-Jun-16 14:46N 38°11' E 024°12'0 0.1
2018-Jun-16 14:30N 38°11' E 024°12'0 0.0
2018-Jun-15 10:16N 38°11' E 024°12'310.1
2018-Jun-15 10:00N 38°11' E 024°09'0 0.0
2018-Jun-15 08:01N 38°11' E 024°09'110.3
2018-Jun-15 07:54N 38°11' E 024°07'1 0.6
2018-Jun-15 05:29N 38°11' E 024°09'0 0.0
2018-Jun-14 17:58N 38°11' E 024°09'2 2.2
2018-Jun-14 17:04N 38°11' E 024°07'2 2.1
2018-Jun-14 16:02N 38°11' E 024°09'210.5
2018-Jun-14 15:52N 38°11' E 024°07'4 3.2
2018-Jun-14 14:35N 38°11' E 024°12'0 0.1
2018-Jun-14 14:18N 38°11' E 024°12'4 9.9
2018-Jun-14 13:52N 38°10' E 024°07'2 1.0
2018-Jun-14 12:08N 38°11' E 024°09'110.2
2018-Jun-14 11:59N 38°11' E 024°07'1 0.6
2018-Jun-14 11:00N 38°11' E 024°07'5 5.2
2018-Jun-14 10:07N 38°11' E 024°12'0 0.0
2018-Jun-13 10:15N 38°11' E 024°12'310.2
2018-Jun-13 10:00N 38°11' E 024°09'0 0.1
2018-Jun-13 08:02N 38°11' E 024°09'110.7
2018-Jun-13 07:56N 38°11' E 024°08'  

Dump ship's entire track history